createdAt,value
2018-09-09T00:02:13.561Z,95.68
2018-09-09T00:04:42.294Z,96.58
2018-09-09T00:07:10.817Z,96.93
2018-09-09T00:09:44.750Z,96.20
2018-09-09T00:12:13.268Z,94.96
2018-09-09T00:14:41.886Z,94.40
2018-09-09T00:17:10.847Z,94.00
2018-09-09T00:19:39.388Z,93.80
2018-09-09T00:22:07.961Z,94.54
2018-09-09T00:24:36.557Z,94.80
2018-09-09T00:27:05.376Z,95.94
2018-09-09T00:29:33.917Z,96.59
2018-09-09T00:32:02.470Z,95.73
2018-09-09T00:34:31.021Z,96.40
2018-09-09T00:36:59.566Z,95.94
2018-09-09T00:39:28.120Z,97.08
2018-09-09T00:41:56.648Z,97.38
2018-09-09T00:44:25.190Z,97.48
2018-09-09T00:46:53.687Z,95.95
2018-09-09T00:49:27.486Z,96.29
2018-09-09T00:52:01.269Z,96.83
2018-09-09T00:54:29.808Z,97.55
2018-09-09T00:56:58.326Z,97.40
2018-09-09T00:59:26.873Z,96.95
2018-09-09T01:01:55.409Z,97.06
2018-09-09T01:04:23.976Z,97.55
2018-09-09T01:06:52.543Z,96.59
2018-09-09T01:09:25.256Z,97.17
2018-09-09T01:11:53.826Z,96.68
2018-09-09T01:14:22.440Z,96.64
2018-09-09T01:16:50.988Z,95.55
2018-09-09T01:19:19.579Z,95.14
2018-09-09T01:21:48.140Z,95.38
2018-09-09T01:24:16.704Z,94.88
2018-09-09T01:26:45.304Z,95.62
2018-09-09T01:29:13.871Z,95.20
2018-09-09T01:31:42.708Z,95.81
2018-09-09T01:34:11.282Z,98.10
2018-09-09T01:36:39.882Z,98.24
2018-09-09T01:39:09.778Z,97.51
2018-09-09T01:41:38.365Z,96.89
2018-09-09T01:44:06.953Z,97.01
2018-09-09T01:46:35.552Z,98.46
2018-09-09T01:49:04.120Z,99.85
2018-09-09T01:51:32.697Z,99.63
2018-09-09T01:54:01.250Z,97.81
2018-09-09T01:56:29.837Z,97.03
2018-09-09T01:58:58.409Z,97.03
2018-09-09T02:01:27.009Z,97.79
2018-09-09T02:03:55.586Z,96.90
2018-09-09T02:06:24.174Z,97.64
2018-09-09T02:08:52.738Z,98.11
2018-09-09T02:11:21.355Z,97.69
2018-09-09T02:13:49.922Z,97.95
2018-09-09T02:16:18.513Z,97.58
2018-09-09T02:18:47.112Z,95.91
2018-09-09T02:21:15.704Z,95.48
2018-09-09T02:23:44.263Z,95.10
2018-09-09T02:26:12.881Z,97.13
2018-09-09T02:28:41.733Z,97.32
2018-09-09T02:31:10.326Z,99.09
2018-09-09T02:33:38.900Z,97.91
2018-09-09T02:36:14.080Z,99.12
2018-09-09T02:38:43.033Z,98.32
2018-09-09T02:41:11.676Z,98.07
2018-09-09T02:43:40.265Z,99.41
2018-09-09T02:46:08.833Z,99.13
2018-09-09T02:48:37.393Z,99.87
2018-09-09T02:51:06.265Z,99.75
2018-09-09T02:53:34.831Z,99.45
2018-09-09T02:56:07.565Z,100.00
2018-09-09T02:58:36.125Z,100.00
2018-09-09T03:01:04.875Z,98.94
2018-09-09T03:03:33.428Z,99.62
2018-09-09T03:06:02.021Z,100.00
2018-09-09T03:08:30.621Z,100.00
2018-09-09T03:11:04.409Z,100.00
2018-09-09T03:13:32.970Z,100.00
2018-09-09T03:16:01.530Z,100.00
2018-09-09T03:18:30.141Z,99.63
2018-09-09T03:20:58.813Z,98.68
2018-09-09T03:23:27.973Z,99.40
2018-09-09T03:25:56.552Z,99.38
2018-09-09T03:28:25.188Z,100.00
2018-09-09T03:30:53.745Z,100.00
2018-09-09T03:33:22.337Z,100.00
2018-09-09T03:35:51.222Z,100.00
2018-09-09T03:38:20.397Z,100.00
2018-09-09T03:40:49.403Z,100.00
2018-09-09T03:43:17.994Z,100.00
2018-09-09T03:45:46.555Z,99.03
2018-09-09T03:48:15.248Z,97.55
2018-09-09T03:50:43.813Z,97.82
2018-09-09T03:53:12.409Z,98.82
2018-09-09T03:55:40.960Z,98.02
2018-09-09T03:58:09.559Z,98.63
2018-09-09T04:00:38.114Z,97.97
2018-09-09T04:03:07.265Z,98.87
2018-09-09T04:05:35.876Z,98.98
2018-09-09T04:08:04.476Z,100.00
2018-09-09T04:10:33.045Z,100.00
2018-09-09T04:13:01.647Z,99.96
2018-09-09T04:15:30.281Z,99.73
2018-09-09T04:17:58.881Z,99.84
2018-09-09T04:20:27.453Z,100.00
2018-09-09T04:22:56.634Z,100.00
2018-09-09T04:25:25.214Z,100.00
2018-09-09T04:27:53.809Z,99.33
2018-09-09T04:30:22.383Z,99.58
2018-09-09T04:32:50.982Z,98.56
2018-09-09T04:35:19.549Z,97.36
2018-09-09T04:37:48.143Z,98.45
2018-09-09T04:40:16.717Z,98.25
2018-09-09T04:42:45.296Z,97.89
2018-09-09T04:45:13.857Z,98.34
2018-09-09T04:47:42.441Z,98.32
2018-09-09T04:50:11.002Z,99.41
2018-09-09T04:52:39.580Z,98.40
2018-09-09T04:55:08.152Z,99.18
2018-09-09T04:57:36.737Z,100.00
2018-09-09T05:00:05.885Z,100.00
2018-09-09T05:02:34.830Z,100.00
2018-09-09T05:05:03.396Z,98.98
2018-09-09T05:07:31.954Z,99.93
2018-09-09T05:10:00.536Z,98.96
2018-09-09T05:12:29.101Z,98.40
2018-09-09T05:14:57.708Z,99.93
2018-09-09T05:17:26.252Z,100.00
2018-09-09T05:19:54.846Z,100.00
2018-09-09T05:22:23.401Z,100.00
2018-09-09T05:24:52.041Z,100.00
2018-09-09T05:27:20.609Z,100.00
2018-09-09T05:29:49.212Z,100.00
2018-09-09T05:32:17.789Z,100.00
2018-09-09T05:34:46.374Z,100.00
2018-09-09T05:37:14.917Z,100.00
2018-09-09T05:39:43.509Z,100.00
2018-09-09T05:42:12.056Z,100.00
2018-09-09T05:44:40.671Z,100.00
2018-09-09T05:47:09.239Z,100.00
2018-09-09T05:49:37.836Z,100.00
2018-09-09T05:52:06.401Z,100.00
2018-09-09T05:54:34.990Z,100.00
2018-09-09T05:57:03.551Z,100.00
2018-09-09T05:59:32.177Z,100.00
2018-09-09T06:02:00.787Z,100.00
2018-09-09T06:04:29.378Z,100.00
2018-09-09T06:06:57.945Z,100.00
2018-09-09T06:09:26.537Z,100.00
2018-09-09T06:11:55.085Z,99.48
2018-09-09T06:14:23.677Z,100.00
2018-09-09T06:16:52.282Z,99.72
2018-09-09T06:19:20.880Z,100.00
2018-09-09T06:21:49.440Z,99.37
2018-09-09T06:24:18.034Z,98.96
2018-09-09T06:26:46.600Z,98.40
2018-09-09T06:29:15.205Z,98.48
2018-09-09T06:31:43.768Z,98.67
2018-09-09T06:34:12.353Z,98.98
2018-09-09T06:36:40.903Z,98.72
2018-09-09T06:39:10.649Z,97.67
2018-09-09T06:41:39.697Z,96.95
2018-09-09T06:44:08.498Z,96.42
2018-09-09T06:46:37.250Z,96.56
2018-09-09T06:49:06.504Z,96.47
2018-09-09T06:51:35.056Z,95.99
2018-09-09T06:54:03.639Z,95.91
2018-09-09T06:56:32.859Z,94.66
2018-09-09T06:59:01.431Z,94.83
2018-09-09T07:01:30.444Z,94.91
2018-09-09T07:03:58.989Z,94.48
2018-09-09T07:06:34.216Z,94.17
2018-09-09T07:09:02.835Z,93.51
2018-09-09T07:11:31.516Z,92.70
2018-09-09T07:14:00.025Z,93.68
2018-09-09T07:16:28.630Z,93.18
2018-09-09T07:18:57.231Z,93.16
2018-09-09T07:21:25.825Z,93.25
2018-09-09T07:23:54.380Z,92.73
2018-09-09T07:26:22.982Z,92.18
2018-09-09T07:28:51.539Z,92.63
2018-09-09T07:31:20.126Z,92.30
2018-09-09T07:33:48.704Z,91.04
2018-09-09T07:36:17.385Z,90.53
2018-09-09T07:38:45.933Z,89.87
2018-09-09T07:41:14.513Z,88.90
2018-09-09T07:43:43.083Z,88.70
2018-09-09T07:46:11.718Z,88.28
2018-09-09T07:48:40.284Z,87.53
2018-09-09T07:51:08.872Z,86.68
2018-09-09T07:53:37.413Z,85.94
2018-09-09T07:56:06.377Z,85.58
2018-09-09T07:58:34.928Z,85.28
2018-09-09T08:01:03.514Z,85.48
2018-09-09T08:03:32.068Z,85.63
2018-09-09T08:06:00.659Z,84.80
2018-09-09T08:08:29.211Z,84.77
2018-09-09T08:10:57.885Z,85.72
2018-09-09T08:13:26.429Z,85.14
2018-09-09T08:15:55.028Z,85.45
2018-09-09T08:18:23.588Z,84.52
2018-09-09T08:20:52.198Z,84.35
2018-09-09T08:23:20.760Z,83.88
2018-09-09T08:25:49.345Z,82.87
2018-09-09T08:28:17.918Z,82.44
2018-09-09T08:30:46.514Z,81.36
2018-09-09T08:33:15.109Z,79.88
2018-09-09T08:35:43.713Z,79.39
2018-09-09T08:38:17.693Z,78.58
2018-09-09T08:40:46.324Z,78.11
2018-09-09T08:43:14.944Z,78.39
2018-09-09T08:45:43.721Z,77.62
2018-09-09T08:48:12.597Z,77.01
2018-09-09T08:50:41.253Z,77.40
2018-09-09T08:53:10.012Z,77.26
2018-09-09T08:55:39.218Z,76.53
2018-09-09T08:58:07.833Z,75.67
2018-09-09T09:00:36.421Z,75.89
2018-09-09T09:03:05.060Z,75.46
2018-09-09T09:05:33.625Z,74.06
2018-09-09T09:08:02.297Z,73.91
2018-09-09T09:10:30.859Z,75.19
2018-09-09T09:12:59.521Z,74.12
2018-09-09T09:15:28.175Z,73.09
2018-09-09T09:17:56.794Z,72.61
2018-09-09T09:20:25.417Z,71.71
2018-09-09T09:22:54.033Z,72.14
2018-09-09T09:25:22.617Z,71.83
2018-09-09T09:27:51.225Z,72.32
2018-09-09T09:30:19.780Z,68.57
2018-09-09T09:32:49.081Z,68.15
2018-09-09T09:35:17.637Z,67.83
2018-09-09T09:37:46.229Z,67.89
2018-09-09T09:40:14.830Z,65.76
2018-09-09T09:42:43.412Z,61.90
2018-09-09T09:45:11.974Z,63.96
2018-09-09T09:47:40.566Z,64.28
2018-09-09T09:50:09.173Z,61.46
2018-09-09T09:52:37.768Z,60.88
2018-09-09T09:55:06.389Z,60.76
2018-09-09T09:57:34.976Z,58.53
2018-09-09T10:00:03.546Z,59.97
2018-09-09T10:02:32.193Z,58.72
2018-09-09T10:05:00.755Z,59.24
2018-09-09T10:07:29.362Z,61.37
2018-09-09T10:09:57.926Z,59.87
2018-09-09T10:12:26.533Z,60.96
2018-09-09T10:14:55.102Z,58.57
2018-09-09T10:17:23.685Z,56.28
2018-09-09T10:19:52.276Z,57.98
2018-09-09T10:22:20.833Z,55.35
2018-09-09T10:24:49.439Z,53.34
2018-09-09T10:27:18.038Z,55.44
2018-09-09T10:29:46.657Z,56.04
2018-09-09T10:32:15.238Z,57.66
2018-09-09T10:34:43.872Z,55.96
2018-09-09T10:37:12.445Z,56.51
2018-09-09T10:39:41.331Z,53.84
2018-09-09T10:42:10.007Z,50.53
2018-09-09T10:44:38.654Z,52.78
2018-09-09T10:47:07.871Z,54.68
2018-09-09T10:49:36.464Z,49.86
2018-09-09T10:52:05.064Z,50.91
2018-09-09T10:54:33.668Z,53.31
2018-09-09T10:57:02.279Z,52.58
2018-09-09T10:59:30.909Z,50.45
2018-09-09T11:01:59.516Z,52.43
2018-09-09T11:04:28.170Z,50.00
2018-09-09T11:06:57.126Z,49.27
2018-09-09T11:09:25.787Z,49.45
2018-09-09T11:11:55.099Z,49.16
2018-09-09T11:14:24.031Z,48.39
2018-09-09T11:16:52.703Z,46.54
2018-09-09T11:19:21.720Z,44.04
2018-09-09T11:21:50.314Z,43.17
2018-09-09T11:24:18.923Z,42.78
2018-09-09T11:26:47.546Z,43.43
2018-09-09T11:29:16.978Z,44.29
2018-09-09T11:31:45.698Z,42.89
2018-09-09T11:34:14.313Z,43.20
2018-09-09T11:36:42.961Z,45.18
2018-09-09T11:39:12.676Z,44.49
2018-09-09T11:41:41.281Z,45.05
2018-09-09T11:44:09.924Z,43.34
2018-09-09T11:46:42.040Z,41.89
2018-09-09T11:49:11.013Z,42.11
2018-09-09T11:51:41.101Z,41.67
2018-09-09T11:54:10.823Z,41.97
2018-09-09T11:56:39.817Z,43.89
2018-09-09T11:59:08.537Z,42.97
2018-09-09T12:01:37.705Z,44.30
2018-09-09T12:04:06.534Z,43.92
2018-09-09T12:06:35.321Z,44.97
2018-09-09T12:09:05.503Z,42.68
2018-09-09T12:11:34.346Z,43.12
2018-09-09T12:14:03.046Z,43.69
2018-09-09T12:16:32.399Z,44.79
2018-09-09T12:19:02.907Z,42.19
2018-09-09T12:21:33.433Z,40.34
2018-09-09T12:24:04.952Z,40.19
2018-09-09T12:26:34.754Z,39.50
2018-09-09T12:29:04.475Z,37.82
2018-09-09T12:31:34.748Z,38.76
2018-09-09T12:34:03.468Z,39.70
2018-09-09T12:36:32.045Z,40.19
2018-09-09T12:39:06.792Z,41.62
2018-09-09T12:41:35.669Z,40.67
2018-09-09T12:44:09.602Z,41.16
2018-09-09T12:46:43.440Z,41.07
2018-09-09T12:49:12.017Z,40.48
2018-09-09T12:51:40.617Z,39.17
2018-09-09T12:54:09.173Z,37.81
2018-09-09T12:56:37.777Z,38.37
2018-09-09T12:59:06.401Z,38.92
2018-09-09T13:01:34.993Z,38.95
2018-09-09T13:04:03.553Z,38.06
2018-09-09T13:06:32.142Z,39.59
2018-09-09T13:09:00.697Z,38.19
2018-09-09T13:11:29.289Z,36.34
2018-09-09T13:13:57.917Z,36.27
2018-09-09T13:16:26.532Z,36.06
2018-09-09T13:18:55.129Z,35.56
2018-09-09T13:21:23.975Z,36.96
2018-09-09T13:23:52.617Z,36.04
2018-09-09T13:26:23.768Z,36.03
2018-09-09T13:28:52.333Z,35.93
2018-09-09T13:31:27.068Z,36.36
2018-09-09T13:34:02.389Z,36.02
2018-09-09T13:36:31.292Z,36.39
2018-09-09T13:38:59.895Z,35.94
2018-09-09T13:41:30.810Z,35.38
2018-09-09T13:43:59.465Z,34.51
2018-09-09T13:46:28.232Z,35.79
2018-09-09T13:48:56.813Z,34.53
2018-09-09T13:51:25.402Z,33.73
2018-09-09T13:53:53.966Z,33.89
2018-09-09T13:56:24.208Z,33.66
2018-09-09T13:59:02.029Z,34.10
2018-09-09T14:01:30.828Z,33.97
2018-09-09T14:03:59.378Z,34.61
2018-09-09T14:06:27.965Z,34.82
2018-09-09T14:08:56.521Z,32.31
2018-09-09T14:11:25.109Z,33.15
2018-09-09T14:13:53.666Z,32.32
2018-09-09T14:16:22.264Z,33.38
2018-09-09T14:18:50.825Z,33.37
2018-09-09T14:21:19.409Z,33.76
2018-09-09T14:23:49.202Z,34.35
2018-09-09T14:26:18.015Z,33.93
2018-09-09T14:28:46.609Z,33.74
2018-09-09T14:31:15.270Z,33.16
2018-09-09T14:33:43.965Z,32.77
2018-09-09T14:36:12.564Z,33.12
2018-09-09T14:38:41.479Z,32.54
2018-09-09T14:41:10.033Z,33.35
2018-09-09T14:43:38.604Z,33.04
2018-09-09T14:46:07.864Z,32.45
2018-09-09T14:48:36.417Z,32.52
2018-09-09T14:51:04.969Z,32.04
2018-09-09T14:53:33.546Z,33.11
2018-09-09T14:56:03.056Z,32.38
2018-09-09T14:58:31.676Z,32.87
2018-09-09T15:01:00.302Z,32.53
2018-09-09T15:03:28.892Z,31.87
2018-09-09T15:05:58.761Z,32.51
2018-09-09T15:08:27.591Z,31.61
2018-09-09T15:10:57.905Z,32.50
2018-09-09T15:13:26.668Z,32.00
2018-09-09T15:15:55.304Z,32.94
2018-09-09T15:18:23.888Z,32.88
2018-09-09T15:20:52.425Z,32.34
2018-09-09T15:23:20.989Z,32.30
2018-09-09T15:25:49.536Z,32.02
2018-09-09T15:28:18.128Z,31.03
2018-09-09T15:30:47.200Z,30.96
2018-09-09T15:33:15.784Z,30.30
2018-09-09T15:35:44.348Z,30.81
2018-09-09T15:38:12.934Z,29.98
2018-09-09T15:40:41.474Z,29.50
2018-09-09T15:43:10.065Z,29.35
2018-09-09T15:45:38.633Z,29.79
2018-09-09T15:48:07.219Z,30.28
2018-09-09T15:50:35.782Z,28.97
2018-09-09T15:53:04.381Z,30.11
2018-09-09T15:55:32.925Z,30.25
2018-09-09T15:58:01.540Z,28.99
2018-09-09T16:00:31.604Z,29.42
2018-09-09T16:03:01.771Z,29.29
2018-09-09T16:05:30.782Z,29.73
2018-09-09T16:07:59.396Z,29.37
2018-09-09T16:10:27.960Z,29.11
2018-09-09T16:12:56.656Z,29.48
2018-09-09T16:15:25.160Z,29.55
2018-09-09T16:17:53.704Z,29.40
2018-09-09T16:20:22.292Z,29.25
2018-09-09T16:22:51.183Z,28.72
2018-09-09T16:25:19.760Z,30.12
2018-09-09T16:27:48.314Z,29.64
2018-09-09T16:30:19.001Z,29.29
2018-09-09T16:32:47.557Z,30.03
2018-09-09T16:35:16.317Z,29.96
2018-09-09T16:37:47.543Z,29.99
2018-09-09T16:40:17.377Z,30.60
2018-09-09T16:42:47.935Z,30.62
2018-09-09T16:45:16.659Z,30.99
2018-09-09T16:47:45.268Z,30.73
2018-09-09T16:50:13.868Z,31.55
2018-09-09T16:52:43.882Z,31.74
2018-09-09T16:55:13.125Z,31.26
2018-09-09T16:57:42.417Z,32.28
2018-09-09T17:00:12.725Z,31.84
2018-09-09T17:02:43.173Z,32.28
2018-09-09T17:05:15.616Z,33.22
2018-09-09T17:07:46.321Z,33.24
2018-09-09T17:10:15.973Z,33.97
2018-09-09T17:12:44.620Z,34.06
2018-09-09T17:15:13.615Z,33.37
2018-09-09T17:17:42.386Z,35.03
2018-09-09T17:20:11.092Z,34.86
2018-09-09T17:22:40.471Z,39.24
2018-09-09T17:25:09.385Z,40.84
2018-09-09T17:27:37.980Z,41.11
2018-09-09T17:30:06.572Z,42.45
2018-09-09T17:32:35.121Z,43.72
2018-09-09T17:35:04.181Z,45.62
2018-09-09T17:37:33.000Z,47.16
2018-09-09T17:40:01.658Z,46.44
2018-09-09T17:42:30.207Z,45.66
2018-09-09T17:44:58.792Z,45.25
2018-09-09T17:47:27.340Z,47.89
2018-09-09T17:49:55.918Z,50.01
2018-09-09T17:52:24.529Z,51.35
2018-09-09T17:54:53.048Z,50.49
2018-09-09T17:57:21.700Z,51.69
2018-09-09T17:59:55.433Z,51.22
2018-09-09T18:02:27.853Z,51.57
2018-09-09T18:05:01.507Z,51.14
2018-09-09T18:07:44.968Z,52.98
2018-09-09T18:10:18.917Z,57.16
2018-09-09T18:12:51.007Z,58.45
2018-09-09T18:15:24.764Z,58.50
2018-09-09T18:17:56.547Z,59.57
2018-09-09T18:23:04.992Z,58.26
2018-09-09T18:25:35.897Z,58.78
2018-09-09T18:28:05.004Z,59.82
2018-09-09T18:30:34.357Z,60.92
2018-09-09T18:33:02.938Z,62.21
2018-09-09T18:35:37.726Z,63.17
2018-09-09T18:38:09.823Z,62.74
2018-09-09T18:40:43.578Z,62.26
2018-09-09T18:43:20.655Z,63.22
2018-09-09T18:45:49.436Z,63.45
2018-09-09T18:48:22.479Z,62.17
2018-09-09T18:50:51.793Z,62.62
2018-09-09T18:53:20.644Z,65.13
2018-09-09T18:55:54.529Z,64.53
2018-09-09T18:58:23.349Z,65.37
2018-09-09T19:00:52.246Z,65.44
2018-09-09T19:03:27.144Z,66.76
2018-09-09T19:05:59.322Z,68.00
2018-09-09T19:08:28.976Z,67.88
2018-09-09T19:10:57.677Z,66.79
2018-09-09T19:13:28.657Z,68.75
2018-09-09T19:15:57.826Z,67.36
2018-09-09T19:18:28.025Z,67.85
2018-09-09T19:20:57.398Z,66.98
2018-09-09T19:23:26.773Z,69.58
2018-09-09T19:25:56.298Z,70.18
2018-09-09T19:28:27.423Z,69.77
2018-09-09T19:30:56.029Z,69.45
2018-09-09T19:33:25.452Z,70.74
2018-09-09T19:35:54.870Z,71.12
2018-09-09T19:38:23.781Z,72.50
2018-09-09T19:40:54.665Z,72.74
2018-09-09T19:43:24.812Z,72.12
2018-09-09T19:45:54.289Z,72.43
2018-09-09T19:48:24.233Z,71.72
2018-09-09T19:50:55.930Z,70.92
2018-09-09T19:53:31.015Z,70.54
2018-09-09T19:56:01.658Z,71.78
2018-09-09T19:58:32.109Z,71.85
2018-09-09T20:01:04.311Z,70.22
2018-09-09T20:03:35.209Z,70.20
2018-09-09T20:06:07.222Z,70.18
2018-09-09T20:08:36.801Z,70.92
2018-09-09T20:11:06.390Z,69.88
2018-09-09T20:13:38.005Z,70.69
2018-09-09T20:16:07.029Z,72.09
2018-09-09T20:18:37.431Z,71.95
2018-09-09T20:21:08.496Z,71.73
2018-09-09T20:23:39.237Z,71.76
2018-09-09T20:26:09.020Z,71.88
2018-09-09T20:28:38.449Z,73.25
2018-09-09T20:31:07.020Z,73.80
2018-09-09T20:33:36.462Z,74.61
2018-09-09T20:36:11.549Z,75.51
2018-09-09T20:38:41.557Z,75.58
2018-09-09T20:41:11.625Z,75.02
2018-09-09T20:43:43.518Z,75.79
2018-09-09T20:46:13.371Z,76.83
2018-09-09T20:48:42.456Z,77.63
2018-09-09T20:51:13.166Z,77.62
2018-09-09T20:53:44.565Z,77.54
2018-09-09T20:56:14.190Z,79.28
2018-09-09T20:58:45.090Z,78.94
2018-09-09T21:01:14.683Z,80.01
2018-09-09T21:03:45.163Z,78.37
2018-09-09T21:06:14.566Z,77.49
2018-09-09T21:08:47.021Z,78.12
2018-09-09T21:11:16.839Z,76.72
2018-09-09T21:13:46.961Z,78.39
2018-09-09T21:16:16.124Z,78.17
2018-09-09T21:18:47.102Z,79.04
2018-09-09T21:21:18.617Z,78.30
2018-09-09T21:23:47.726Z,78.85
2018-09-09T21:26:16.356Z,79.82
2018-09-09T21:28:44.864Z,78.06
2018-09-09T21:31:18.021Z,79.78
2018-09-09T21:33:47.229Z,81.17
2018-09-09T21:36:15.896Z,81.96
2018-09-09T21:38:44.842Z,82.36
2018-09-09T21:41:13.445Z,81.81
2018-09-09T21:43:42.052Z,81.57
2018-09-09T21:46:10.665Z,82.15
2018-09-09T21:48:39.276Z,81.83
2018-09-09T21:51:07.844Z,80.41
2018-09-09T21:53:36.389Z,81.11
2018-09-09T21:56:04.985Z,81.17
2018-09-09T21:58:33.553Z,81.90
2018-09-09T22:02:05.704Z,80.73
2018-09-09T22:04:34.296Z,82.55
2018-09-09T22:07:03.011Z,81.33
2018-09-09T22:09:31.581Z,80.42
2018-09-09T22:12:00.112Z,79.95
2018-09-09T22:14:28.705Z,81.29
2018-09-09T22:16:57.267Z,80.98
2018-09-09T22:19:25.853Z,81.80
2018-09-09T22:21:54.744Z,83.21
2018-09-09T22:24:23.319Z,81.59
2018-09-09T22:26:51.887Z,82.76
2018-09-09T22:29:20.727Z,81.93
2018-09-09T22:31:49.288Z,82.47
2018-09-09T22:34:17.860Z,82.44
2018-09-09T22:36:46.497Z,81.98
2018-09-09T22:39:15.045Z,82.26
2018-09-09T22:41:43.618Z,83.61
2018-09-09T22:44:13.029Z,83.66
2018-09-09T22:46:42.267Z,83.33
2018-09-09T22:49:10.813Z,84.97
2018-09-09T22:51:39.571Z,86.24
2018-09-09T22:54:08.116Z,86.18
2018-09-09T22:56:36.705Z,84.43
2018-09-09T22:59:05.244Z,84.79
2018-09-09T23:01:33.825Z,85.23
2018-09-09T23:04:02.479Z,86.40
2018-09-09T23:06:31.054Z,86.16
2018-09-09T23:08:59.600Z,86.17
2018-09-09T23:11:28.183Z,86.57
2018-09-09T23:13:56.734Z,84.90
2018-09-09T23:16:25.305Z,85.99
2018-09-09T23:18:53.851Z,88.38
2018-09-09T23:21:29.044Z,88.68
2018-09-09T23:23:57.584Z,88.78
2018-09-09T23:26:26.172Z,89.72
2018-09-09T23:28:54.725Z,88.98
2018-09-09T23:31:23.342Z,87.93
2018-09-09T23:33:51.888Z,87.72
2018-09-09T23:36:20.785Z,85.24
2018-09-09T23:38:49.344Z,86.86
2018-09-09T23:41:17.928Z,86.05
2018-09-09T23:43:46.470Z,87.00
2018-09-09T23:46:15.060Z,87.04
2018-09-09T23:48:43.620Z,86.79
2018-09-09T23:51:12.201Z,86.10
2018-09-09T23:53:40.786Z,87.50
2018-09-09T23:56:09.405Z,86.64
2018-09-09T23:58:37.965Z,86.13
